Time;durP1;ratioP1;P1;durP2;ratioP2;P2;SDS_P1;SDS_P2;PMS_P1;PMS_P2;Temp;Humidity;BMP_temperature;BMP_pressure;BME280_temperature;BME280_humidity;BME280_pressure;Samples;Min_cycle;Max_cycle;Signal;HPM_P1;HPM_P2
2021/06/11 00:00:30;;;;;;;11.63;5.70;;;24.40;46.10;;;;;;6231404;27;83064;-63
2021/06/11 00:03:30;;;;;;;8.50;4.63;;;24.40;46.00;;;;;;6232246;27;80746;-64
2021/06/11 00:06:31;;;;;;;8.82;4.97;;;24.40;46.00;;;;;;6228440;27;80870;-64
2021/06/11 00:09:32;;;;;;;9.50;5.43;;;24.40;46.60;;;;;;6233932;27;81073;-64
2021/06/11 00:12:32;;;;;;;9.18;5.13;;;24.40;45.90;;;;;;6230662;27;80538;-64
2021/06/11 00:15:33;;;;;;;9.82;5.38;;;24.40;46.00;;;;;;6230302;27;83534;-64
2021/06/11 00:18:33;;;;;;;14.60;5.60;;;24.30;45.90;;;;;;6232587;27;81603;-64
2021/06/11 00:21:34;;;;;;;14.65;6.75;;;24.30;46.00;;;;;;6234641;27;80167;-64
2021/06/11 00:24:35;;;;;;;9.18;5.40;;;24.30;45.90;;;;;;6232140;27;81466;-63
2021/06/11 00:27:35;;;;;;;8.52;5.05;;;24.30;46.00;;;;;;6232781;27;80918;-63
2021/06/11 00:30:36;;;;;;;9.32;5.22;;;24.30;45.90;;;;;;6233187;27;80919;-63
2021/06/11 00:33:36;;;;;;;7.78;5.45;;;24.40;46.00;;;;;;6236581;27;80588;-63
2021/06/11 00:36:37;;;;;;;8.43;4.88;;;24.40;46.00;;;;;;6236130;27;83621;-64
2021/06/11 00:39:37;;;;;;;12.45;5.63;;;24.40;45.90;;;;;;6233552;27;81651;-64
2021/06/11 00:42:38;;;;;;;7.75;4.88;;;24.30;45.90;;;;;;6237733;27;80387;-64
2021/06/11 00:45:38;;;;;;;6.60;4.72;;;24.30;45.90;;;;;;6243470;27;80741;-64
2021/06/11 00:48:39;;;;;;;8.98;5.40;;;24.30;45.90;;;;;;6244775;27;80932;-63
2021/06/11 00:51:39;;;;;;;8.05;5.00;;;24.30;45.80;;;;;;6237993;27;82027;-63
2021/06/11 00:54:40;;;;;;;11.15;5.53;;;24.30;45.70;;;;;;6233779;27;80494;-63
2021/06/11 00:57:40;;;;;;;7.88;4.82;;;24.30;45.80;;;;;;6231567;27;80627;-63
2021/06/11 01:00:41;;;;;;;12.52;5.70;;;24.30;45.80;;;;;;6228330;27;80320;-64
2021/06/11 01:03:41;;;;;;;8.60;5.00;;;24.30;45.90;;;;;;6238474;27;80525;-64
2021/06/11 01:06:42;;;;;;;7.63;4.93;;;24.30;45.80;;;;;;6233727;27;81357;-64
2021/06/11 01:09:42;;;;;;;8.27;5.03;;;24.30;45.80;;;;;;6232554;27;80377;-64
2021/06/11 01:12:43;;;;;;;9.23;5.65;;;24.30;45.80;;;;;;6237618;27;80370;-64
2021/06/11 01:15:44;;;;;;;10.98;5.47;;;24.30;45.90;;;;;;6223144;27;81754;-62
2021/06/11 01:18:44;;;;;;;7.45;5.13;;;24.30;45.90;;;;;;6235250;27;80368;-63
2021/06/11 01:21:45;;;;;;;7.88;5.30;;;24.20;45.90;;;;;;6240390;27;80469;-65
2021/06/11 01:24:45;;;;;;;6.07;4.70;;;24.20;46.10;;;;;;6230756;27;82155;-64
2021/06/11 01:27:46;;;;;;;9.65;5.43;;;24.30;46.10;;;;;;6230194;27;80636;-64
2021/06/11 01:30:47;;;;;;;6.55;4.93;;;24.20;46.10;;;;;;6233294;27;82501;-64
2021/06/11 01:33:47;;;;;;;8.23;5.05;;;24.20;46.20;;;;;;6234835;27;81675;-64
2021/06/11 01:36:48;;;;;;;8.20;5.07;;;24.20;46.10;;;;;;6228378;27;81222;-64
2021/06/11 01:39:48;;;;;;;7.72;4.70;;;24.30;46.20;;;;;;6234621;27;80317;-64
2021/06/11 01:42:49;;;;;;;8.27;5.10;;;24.20;46.10;;;;;;6232634;27;80817;-63
2021/06/11 01:45:50;;;;;;;8.43;5.07;;;24.20;46.10;;;;;;6231787;27;80659;-64
2021/06/11 01:48:50;;;;;;;6.78;4.80;;;24.20;46.10;;;;;;6231424;27;80560;-63
2021/06/11 01:51:51;;;;;;;8.98;5.45;;;24.20;46.20;;;;;;6227424;27;82034;-63
2021/06/11 01:54:51;;;;;;;7.63;5.50;;;24.20;46.10;;;;;;6229159;27;80801;-63
2021/06/11 01:57:52;;;;;;;10.00;5.18;;;24.10;46.20;;;;;;6229286;27;83157;-63
2021/06/11 02:00:54;;;;;;;11.20;5.57;;;24.10;46.20;;;;;;6229456;27;80395;-63
2021/06/11 02:03:54;;;;;;;9.85;5.38;;;24.10;46.20;;;;;;6231400;27;81018;-63
2021/06/11 02:06:55;;;;;;;9.70;5.18;;;24.10;46.20;;;;;;6231621;27;80738;-63
2021/06/11 02:09:55;;;;;;;7.05;5.25;;;24.20;46.30;;;;;;6231256;27;80345;-63
2021/06/11 02:12:55;;;;;;;8.90;4.95;;;24.20;46.10;;;;;;6228067;27;83270;-63
2021/06/11 02:15:56;;;;;;;8.60;4.80;;;24.20;46.10;;;;;;6223907;27;80279;-63
2021/06/11 02:18:56;;;;;;;6.78;5.22;;;24.20;46.10;;;;;;6231116;27;80533;-63
2021/06/11 02:21:57;;;;;;;7.93;4.95;;;24.20;46.20;;;;;;6232254;27;80793;-63
2021/06/11 02:24:57;;;;;;;7.88;5.40;;;24.20;46.20;;;;;;6236989;27;81001;-63
2021/06/11 02:27:58;;;;;;;7.82;4.63;;;24.10;46.20;;;;;;6235863;27;80427;-63
2021/06/11 02:30:58;;;;;;;7.03;4.55;;;24.10;46.30;;;;;;6235940;27;81086;-63
2021/06/11 02:33:59;;;;;;;8.73;5.00;;;24.10;46.30;;;;;;6235911;27;80728;-63
2021/06/11 02:36:59;;;;;;;7.70;4.95;;;24.10;47.00;;;;;;6240639;27;81183;-63
2021/06/11 02:40:00;;;;;;;6.63;4.68;;;24.10;46.40;;;;;;6235521;27;80722;-62
2021/06/11 02:43:00;;;;;;;8.05;4.40;;;24.10;46.30;;;;;;6240165;27;81999;-62
2021/06/11 02:46:01;;;;;;;7.28;4.75;;;24.10;46.40;;;;;;6233803;27;80336;-63
2021/06/11 02:49:01;;;;;;;7.15;4.65;;;24.10;46.50;;;;;;6234674;27;80590;-63
2021/06/11 02:52:02;;;;;;;6.80;4.60;;;24.10;46.50;;;;;;6234747;27;80577;-63
2021/06/11 02:55:03;;;;;;;8.40;4.30;;;24.10;46.40;;;;;;6234497;27;81504;-63
2021/06/11 02:58:04;;;;;;;7.85;4.50;;;24.10;46.40;;;;;;6235677;27;80416;-63
2021/06/11 03:01:04;;;;;;;6.85;4.72;;;24.10;46.40;;;;;;6235564;27;81178;-63
2021/06/11 03:04:05;;;;;;;5.55;4.57;;;24.10;46.40;;;;;;6235656;27;81178;-63
2021/06/11 03:07:05;;;;;;;6.78;4.80;;;24.10;46.40;;;;;;6241752;27;80394;-63
2021/06/11 03:10:06;;;;;;;6.50;4.47;;;24.10;46.50;;;;;;6236193;27;80952;-63
2021/06/11 03:13:06;;;;;;;6.65;4.45;;;24.10;46.50;;;;;;6234322;27;80892;-64
2021/06/11 03:16:07;;;;;;;8.02;4.60;;;24.10;46.40;;;;;;6238886;27;82285;-64
2021/06/11 03:19:07;;;;;;;7.13;5.22;;;24.10;46.40;;;;;;6238679;27;80401;-63
2021/06/11 03:22:08;;;;;;;6.43;4.43;;;24.10;46.40;;;;;;6238375;27;80677;-63
2021/06/11 03:25:08;;;;;;;8.48;4.53;;;24.10;46.50;;;;;;6244210;27;83345;-63
2021/06/11 03:28:09;;;;;;;5.55;3.95;;;24.10;46.50;;;;;;6235045;27;80436;-63
2021/06/11 03:31:10;;;;;;;7.60;4.93;;;24.10;46.60;;;;;;6233866;27;80513;-63
2021/06/11 03:34:10;;;;;;;11.27;4.68;;;24.10;46.60;;;;;;6233395;27;80347;-63
2021/06/11 03:37:11;;;;;;;8.18;4.63;;;24.00;46.50;;;;;;6240405;27;80843;-63
2021/06/11 03:40:11;;;;;;;7.28;4.32;;;24.10;46.60;;;;;;6247293;27;80424;-63
2021/06/11 03:43:12;;;;;;;5.43;4.18;;;24.10;46.60;;;;;;6229190;27;81449;-64
2021/06/11 03:46:12;;;;;;;8.43;5.40;;;24.10;46.60;;;;;;6235770;27;80335;-63
2021/06/11 03:49:13;;;;;;;13.63;5.30;;;24.10;46.60;;;;;;6234914;27;80953;-63
2021/06/11 03:52:13;;;;;;;6.35;4.30;;;24.10;46.60;;;;;;6235530;27;80598;-64
2021/06/11 03:55:14;;;;;;;10.05;4.53;;;24.10;46.70;;;;;;6230201;27;80314;-63
2021/06/11 03:58:17;;;;;;;8.90;5.10;;;24.10;46.70;;;;;;6233091;27;81205;-63
2021/06/11 04:01:17;;;;;;;7.78;4.72;;;24.10;46.70;;;;;;6234247;27;80199;-63
2021/06/11 04:04:18;;;;;;;11.02;4.97;;;24.10;46.90;;;;;;6232214;27;80782;-63
2021/06/11 04:07:18;;;;;;;9.57;4.72;;;24.10;47.50;;;;;;6231174;27;83635;-62
2021/06/11 04:10:19;;;;;;;6.70;3.80;;;24.10;47.20;;;;;;6233148;27;80798;-63
2021/06/11 04:13:20;;;;;;;6.40;4.53;;;24.20;47.20;;;;;;6232097;27;81346;-64
2021/06/11 04:16:20;;;;;;;7.90;4.47;;;24.20;47.40;;;;;;6236076;27;80448;-63
2021/06/11 04:19:21;;;;;;;6.18;4.25;;;24.30;48.00;;;;;;6239133;27;81949;-66
2021/06/11 04:22:21;;;;;;;6.85;4.43;;;24.40;47.40;;;;;;6229928;27;82496;-65
2021/06/11 04:25:22;;;;;;;5.32;3.92;;;24.40;47.40;;;;;;6233101;27;83213;-64
2021/06/11 04:28:22;;;;;;;6.88;3.60;;;24.40;47.50;;;;;;6221827;27;80666;-64
2021/06/11 04:31:22;;;;;;;7.68;4.57;;;24.40;47.60;;;;;;6230640;27;80449;-64
2021/06/11 04:34:24;;;;;;;7.13;4.07;;;24.40;47.50;;;;;;6231930;27;80957;-63
2021/06/11 04:37:25;;;;;;;6.85;3.85;;;24.50;47.50;;;;;;6231794;27;80357;-64
2021/06/11 04:40:25;;;;;;;6.18;4.22;;;24.50;47.80;;;;;;6225934;27;80837;-64
2021/06/11 04:43:26;;;;;;;4.18;3.60;;;24.50;48.50;;;;;;6238552;27;80437;-64
2021/06/11 04:46:26;;;;;;;4.93;3.78;;;24.50;49.20;;;;;;6234576;27;80359;-64
2021/06/11 04:49:27;;;;;;;5.90;3.95;;;24.50;49.60;;;;;;6232112;27;89141;-64
2021/06/11 04:52:27;;;;;;;7.38;4.70;;;24.60;49.30;;;;;;6230620;27;81916;-65
2021/06/11 04:55:28;;;;;;;5.75;4.03;;;24.60;49.10;;;;;;6231474;28;80729;-64
2021/06/11 04:58:29;;;;;;;6.38;4.03;;;24.50;49.20;;;;;;6236183;27;80443;-64
2021/06/11 05:01:29;;;;;;;9.93;4.43;;;24.60;49.30;;;;;;6236788;27;80859;-65
2021/06/11 05:04:30;;;;;;;7.30;4.40;;;24.70;49.30;;;;;;6233929;27;80765;-65
2021/06/11 05:07:30;;;;;;;5.43;4.05;;;24.70;49.30;;;;;;6235455;27;80818;-64
2021/06/11 05:10:31;;;;;;;8.65;4.30;;;24.70;49.20;;;;;;6233117;27;81380;-64
2021/06/11 05:13:31;;;;;;;8.95;4.60;;;24.70;49.20;;;;;;6233229;27;80500;-65
2021/06/11 05:16:32;;;;;;;6.10;4.47;;;24.70;50.00;;;;;;6233613;27;84671;-64
2021/06/11 05:19:33;;;;;;;5.78;4.40;;;24.70;49.30;;;;;;6233274;27;82557;-64
2021/06/11 05:22:33;;;;;;;5.10;3.95;;;24.80;49.50;;;;;;6236638;27;80589;-64
2021/06/11 05:25:34;;;;;;;7.40;4.15;;;24.80;49.70;;;;;;6230996;27;81383;-62
2021/06/11 05:28:34;;;;;;;5.88;4.00;;;24.80;49.20;;;;;;6239229;27;82923;-62
2021/06/11 05:31:35;;;;;;;6.15;3.80;;;24.80;49.00;;;;;;6231163;27;82364;-62
2021/06/11 05:34:35;;;;;;;11.52;4.57;;;24.80;48.90;;;;;;6230472;27;80587;-64
2021/06/11 05:37:36;;;;;;;6.38;3.63;;;24.80;48.80;;;;;;6237586;27;80830;-64
2021/06/11 05:40:36;;;;;;;7.53;3.97;;;24.80;48.80;;;;;;6231927;27;80787;-62
2021/06/11 05:43:37;;;;;;;9.32;4.65;;;24.80;49.10;;;;;;6230465;27;80890;-62
2021/06/11 05:46:38;;;;;;;5.15;4.07;;;24.80;49.00;;;;;;6226972;27;82091;-63
2021/06/11 05:49:39;;;;;;;9.05;4.30;;;24.80;49.40;;;;;;6228497;27;80583;-65
2021/06/11 05:52:39;;;;;;;5.65;3.78;;;24.80;49.00;;;;;;6232047;27;80293;-62
2021/06/11 05:55:40;;;;;;;8.10;4.25;;;24.90;49.00;;;;;;6227413;27;81441;-64
2021/06/11 05:58:40;;;;;;;6.70;3.80;;;24.90;49.00;;;;;;6234444;27;80161;-63
2021/06/11 06:01:41;;;;;;;7.50;4.65;;;24.80;49.20;;;;;;6234423;27;81234;-63
2021/06/11 06:04:41;;;;;;;6.97;4.25;;;24.80;48.90;;;;;;6235607;27;80909;-64
2021/06/11 06:07:42;;;;;;;10.90;4.50;;;24.80;48.80;;;;;;6227851;27;80681;-65
2021/06/11 06:10:42;;;;;;;7.72;4.88;;;24.80;48.70;;;;;;6233726;27;80493;-65
2021/06/11 06:13:43;;;;;;;7.25;4.32;;;24.80;48.60;;;;;;6232272;28;80654;-65
2021/06/11 06:16:43;;;;;;;6.82;4.63;;;24.80;48.70;;;;;;6236169;27;81295;-64
2021/06/11 06:19:45;;;;;;;7.72;4.85;;;24.80;48.70;;;;;;6237787;27;81051;-63
2021/06/11 06:22:45;;;;;;;10.40;4.95;;;24.80;48.40;;;;;;6234484;27;80517;-64
2021/06/11 06:25:46;;;;;;;7.30;5.03;;;24.80;48.70;;;;;;6234175;27;80886;-63
2021/06/11 06:28:47;;;;;;;12.70;4.60;;;24.80;48.30;;;;;;6234752;27;81593;-65
2021/06/11 06:31:47;;;;;;;7.43;5.20;;;24.80;48.60;;;;;;6236899;27;80749;-65
2021/06/11 06:34:48;;;;;;;9.23;4.90;;;24.80;48.30;;;;;;6232877;27;80471;-65
2021/06/11 06:37:48;;;;;;;8.27;5.10;;;24.80;48.40;;;;;;6241979;27;81258;-65
2021/06/11 06:40:55;;;;;;;13.07;5.00;;;24.90;48.40;;;;;;6235589;27;80999;-64
2021/06/11 06:43:56;;;;;;;11.57;4.32;;;24.90;48.30;;;;;;6232825;27;83012;-66
2021/06/11 06:46:56;;;;;;;9.77;4.65;;;24.80;48.30;;;;;;6229306;27;81062;-66
2021/06/11 06:49:57;;;;;;;8.73;4.70;;;24.80;48.10;;;;;;6223758;28;83990;-66
2021/06/11 06:53:03;;;;;;;9.93;4.18;;;24.90;48.40;;;;;;6235744;27;80420;-66
2021/06/11 06:56:03;;;;;;;9.75;4.40;;;24.80;48.20;;;;;;6240303;27;80173;-66
2021/06/11 06:59:04;;;;;;;6.85;4.70;;;24.80;48.10;;;;;;6235090;27;80588;-64
2021/06/11 07:02:04;;;;;;;7.25;4.55;;;24.80;48.00;;;;;;6234784;27;80598;-66
2021/06/11 07:05:05;;;;;;;7.70;4.57;;;24.90;48.20;;;;;;6233869;27;83193;-65
2021/06/11 07:08:05;;;;;;;8.57;5.13;;;24.90;48.30;;;;;;6238183;27;81327;-66
2021/06/11 07:11:06;;;;;;;5.53;4.45;;;24.80;48.00;;;;;;6222308;27;82529;-64
2021/06/11 07:14:06;;;;;;;6.97;4.85;;;24.80;48.10;;;;;;6225861;27;80504;-64
2021/06/11 07:17:07;;;;;;;7.68;4.95;;;24.90;48.00;;;;;;6221540;27;80624;-64
2021/06/11 07:20:07;;;;;;;10.73;6.07;;;24.90;48.00;;;;;;6229981;27;81397;-64
2021/06/11 07:23:08;;;;;;;10.00;5.57;;;24.80;48.00;;;;;;6224710;27;81408;-65
2021/06/11 07:26:08;;;;;;;7.28;4.38;;;24.90;48.00;;;;;;6223804;27;80497;-64
2021/06/11 07:29:09;;;;;;;6.75;4.55;;;24.90;47.90;;;;;;6221007;27;80380;-64
2021/06/11 07:32:10;;;;;;;8.52;4.45;;;24.90;47.90;;;;;;6234553;27;80919;-64
2021/06/11 07:35:10;;;;;;;8.20;5.03;;;24.90;47.80;;;;;;6234095;27;80577;-65
2021/06/11 07:38:11;;;;;;;7.03;4.85;;;25.00;47.80;;;;;;6232837;27;80531;-66
2021/06/11 07:41:11;;;;;;;8.20;4.60;;;24.90;47.80;;;;;;6230346;27;80388;-65
2021/06/11 07:44:12;;;;;;;6.88;4.28;;;24.90;47.80;;;;;;6226804;27;81098;-65
2021/06/11 07:47:13;;;;;;;5.53;4.38;;;25.00;47.70;;;;;;6233156;27;80259;-67
2021/06/11 07:50:13;;;;;;;10.13;5.63;;;24.90;47.70;;;;;;6234315;27;80479;-64
2021/06/11 07:53:14;;;;;;;5.90;4.07;;;24.90;47.60;;;;;;6235093;27;80680;-64
2021/06/11 07:56:14;;;;;;;9.52;5.18;;;24.90;47.80;;;;;;6230623;27;82662;-63
2021/06/11 07:59:15;;;;;;;14.95;5.50;;;24.90;47.60;;;;;;6226540;27;84001;-65
2021/06/11 08:02:16;;;;;;;6.40;4.07;;;24.90;47.50;;;;;;6227271;27;81072;-64
2021/06/11 08:05:17;;;;;;;8.02;4.40;;;24.90;47.40;;;;;;6234266;27;80469;-64
2021/06/11 08:08:17;;;;;;;8.45;5.35;;;24.90;47.20;;;;;;6225815;27;80275;-65
2021/06/11 08:11:18;;;;;;;11.30;4.93;;;24.80;47.40;;;;;;6243049;27;81144;-65
2021/06/11 08:14:18;;;;;;;8.98;5.03;;;24.90;47.30;;;;;;6232924;27;81039;-64
2021/06/11 08:17:19;;;;;;;10.20;5.05;;;24.90;47.30;;;;;;6230482;27;82292;-64
2021/06/11 08:20:19;;;;;;;5.70;4.50;;;24.90;47.30;;;;;;6225212;27;81020;-65
2021/06/11 08:23:20;;;;;;;12.38;5.63;;;24.90;47.40;;;;;;6229225;27;80418;-63
2021/06/11 08:26:20;;;;;;;5.53;4.57;;;24.80;47.10;;;;;;6214283;27;81367;-64
2021/06/11 08:29:23;;;;;;;6.85;4.97;;;24.90;47.50;;;;;;6220403;27;81894;-64
2021/06/11 08:32:24;;;;;;;9.45;4.90;;;24.90;47.10;;;;;;6233222;27;80459;-63
2021/06/11 08:35:24;;;;;;;7.00;4.60;;;24.90;46.70;;;;;;6227029;27;81449;-62
2021/06/11 08:38:25;;;;;;;9.20;5.00;;;24.90;46.70;;;;;;6229290;27;81053;-62
2021/06/11 08:41:25;;;;;;;6.47;4.72;;;25.00;46.70;;;;;;6229615;27;81347;-63
2021/06/11 08:44:26;;;;;;;10.23;5.55;;;25.00;46.80;;;;;;6229320;27;80951;-63
2021/06/11 08:47:26;;;;;;;6.22;4.18;;;25.00;46.60;;;;;;6225072;27;80204;-63
2021/06/11 08:50:27;;;;;;;9.80;4.82;;;25.00;46.10;;;;;;6224828;27;86294;-65
2021/06/11 08:53:27;;;;;;;5.75;3.50;;;25.00;45.80;;;;;;6230051;27;80456;-64
2021/06/11 08:56:28;;;;;;;7.43;4.03;;;25.00;45.20;;;;;;6231395;27;80789;-63
2021/06/11 08:59:28;;;;;;;7.20;4.28;;;25.00;45.30;;;;;;6234065;27;80150;-64
2021/06/11 09:02:29;;;;;;;11.18;4.07;;;25.10;44.80;;;;;;6234008;27;80412;-63
2021/06/11 09:05:29;;;;;;;27.75;4.10;;;25.10;44.70;;;;;;6227908;27;83322;-63
2021/06/11 09:08:30;;;;;;;8.05;4.43;;;25.10;44.70;;;;;;6229539;27;80261;-61
2021/06/11 09:11:31;;;;;;;19.50;4.70;;;25.10;44.30;;;;;;6220362;27;80891;-63
2021/06/11 09:14:31;;;;;;;5.15;4.03;;;25.10;44.20;;;;;;6232243;27;80735;-64
2021/06/11 09:17:32;;;;;;;7.78;4.28;;;25.00;44.50;;;;;;6224839;27;80450;-63
2021/06/11 09:20:41;;;;;;;9.63;4.28;;;25.10;44.40;;;;;;6219249;27;81214;-63
2021/06/11 09:23:42;;;;;;;7.43;3.47;;;25.00;44.50;;;;;;6225813;27;80570;-62
2021/06/11 09:26:42;;;;;;;9.48;3.80;;;24.90;43.50;;;;;;6233111;27;81601;-62
2021/06/11 09:29:43;;;;;;;9.18;4.65;;;24.80;44.50;;;;;;6228109;27;80438;-62
2021/06/11 09:32:44;;;;;;;15.70;5.07;;;24.60;45.90;;;;;;6222169;27;80138;-63
2021/06/11 09:35:44;;;;;;;12.55;5.65;;;24.50;48.00;;;;;;6228797;27;80491;-63
2021/06/11 09:38:45;;;;;;;9.02;5.93;;;24.20;51.20;;;;;;6229323;27;80848;-65
2021/06/11 09:41:46;;;;;;;10.10;5.63;;;23.80;50.00;;;;;;6227582;27;80918;-62
2021/06/11 09:44:46;;;;;;;11.07;4.43;;;23.70;48.40;;;;;;6231673;27;81525;-62
2021/06/11 09:47:47;;;;;;;7.07;3.92;;;23.70;47.70;;;;;;6228457;27;80855;-64
2021/06/11 09:50:51;;;;;;;10.50;4.50;;;23.80;48.20;;;;;;6226873;27;80102;-61
2021/06/11 09:53:52;;;;;;;7.45;3.80;;;23.80;48.20;;;;;;6222668;27;81582;-62
2021/06/11 09:56:52;;;;;;;8.07;4.50;;;23.90;48.20;;;;;;6226073;28;80242;-63
2021/06/11 09:59:53;;;;;;;8.80;3.85;;;24.00;47.90;;;;;;6230161;27;80463;-62
2021/06/11 10:02:53;;;;;;;10.40;5.25;;;24.00;47.40;;;;;;6226189;27;80236;-63
2021/06/11 10:05:54;;;;;;;12.18;3.97;;;24.10;48.10;;;;;;6221667;27;81861;-62
2021/06/11 10:08:54;;;;;;;5.13;3.60;;;24.10;48.60;;;;;;6230326;27;80352;-62
2021/06/11 10:11:55;;;;;;;7.65;3.50;;;24.20;47.80;;;;;;6228748;27;80957;-62
2021/06/11 10:14:56;;;;;;;6.38;4.35;;;24.30;48.30;;;;;;6226503;27;80289;-62
2021/06/11 10:17:56;;;;;;;6.18;4.35;;;24.40;49.50;;;;;;6229908;27;80688;-63
2021/06/11 10:20:58;;;;;;;8.90;4.30;;;24.30;49.60;;;;;;6228769;27;81223;-63
2021/06/11 10:23:58;;;;;;;8.07;4.63;;;24.30;50.50;;;;;;6225671;27;82076;-62
2021/06/11 10:26:59;;;;;;;12.63;4.45;;;24.20;51.70;;;;;;6229297;27;80391;-63
2021/06/11 10:30:00;;;;;;;15.55;5.13;;;24.20;51.60;;;;;;6230700;27;80938;-62
2021/06/11 10:33:00;;;;;;;11.35;5.15;;;24.20;51.30;;;;;;6226249;27;83144;-63
2021/06/11 10:36:01;;;;;;;11.70;5.05;;;24.30;50.90;;;;;;6226901;27;83029;-63
2021/06/11 10:39:01;;;;;;;9.23;4.70;;;24.40;51.90;;;;;;6231521;27;81019;-63
2021/06/11 10:42:03;;;;;;;8.50;5.15;;;24.50;52.20;;;;;;6231813;27;88876;-64
2021/06/11 10:45:03;;;;;;;10.82;5.18;;;24.60;52.10;;;;;;6233317;27;80582;-64
2021/06/11 10:48:04;;;;;;;8.60;4.93;;;24.50;52.40;;;;;;6233096;27;80184;-64
2021/06/11 10:51:04;;;;;;;5.90;4.15;;;24.50;52.20;;;;;;6233818;27;80898;-64
2021/06/11 10:54:05;;;;;;;7.05;4.50;;;24.40;50.10;;;;;;6232804;27;80195;-64
2021/06/11 10:57:05;;;;;;;11.00;4.55;;;24.40;49.70;;;;;;6235096;27;80866;-64
2021/06/11 11:00:06;;;;;;;10.80;4.20;;;24.40;49.00;;;;;;6234404;27;81495;-63
2021/06/11 11:03:07;;;;;;;8.27;4.30;;;24.30;48.70;;;;;;6227554;27;81680;-63
2021/06/11 11:06:07;;;;;;;6.18;4.38;;;24.30;48.50;;;;;;6226916;27;81169;-64
2021/06/11 11:09:08;;;;;;;6.95;4.88;;;24.30;50.00;;;;;;6229523;27;81382;-63
2021/06/11 11:12:08;;;;;;;7.82;4.45;;;24.30;49.90;;;;;;6234377;27;81162;-64
2021/06/11 11:15:09;;;;;;;6.43;4.50;;;24.40;50.00;;;;;;6228550;27;80274;-64
2021/06/11 11:18:09;;;;;;;9.70;4.45;;;24.30;48.00;;;;;;6231347;27;80375;-64
2021/06/11 11:21:10;;;;;;;5.22;4.22;;;24.30;47.30;;;;;;6225223;27;80435;-64
2021/06/11 11:24:12;;;;;;;7.07;4.20;;;24.40;47.30;;;;;;6228377;28;83308;-64
2021/06/11 11:27:13;;;;;;;6.32;4.60;;;24.40;48.00;;;;;;6231248;27;80912;-64
2021/06/11 11:30:13;;;;;;;7.65;4.60;;;24.40;48.50;;;;;;6232551;27;80457;-63
2021/06/11 11:33:14;;;;;;;5.57;3.75;;;24.40;48.70;;;;;;6230729;27;80600;-63
2021/06/11 11:36:15;;;;;;;11.18;4.50;;;24.40;48.70;;;;;;6233263;27;81416;-64
2021/06/11 11:39:15;;;;;;;4.82;4.07;;;24.50;48.90;;;;;;6229751;27;80798;-64
2021/06/11 11:42:16;;;;;;;5.43;3.95;;;24.50;47.50;;;;;;6224942;27;81392;-64
2021/06/11 11:45:17;;;;;;;6.60;4.68;;;24.60;47.40;;;;;;6225008;28;81057;-64
2021/06/11 11:48:23;;;;;;;4.75;3.95;;;24.60;47.10;;;;;;6228662;27;81267;-64
2021/06/11 11:51:24;;;;;;;15.50;4.85;;;24.70;47.10;;;;;;6229489;27;81766;-64
2021/06/11 11:54:24;;;;;;;7.78;4.50;;;24.80;46.10;;;;;;6231938;28;81152;-63
2021/06/11 11:57:25;;;;;;;6.45;3.53;;;24.90;46.50;;;;;;6233718;27;80386;-64
2021/06/11 12:00:31;;;;;;;11.88;4.68;;;24.90;46.40;;;;;;6230461;27;80995;-63
2021/06/11 12:03:31;;;;;;;5.45;3.83;;;24.90;46.30;;;;;;6233676;27;80590;-64
2021/06/11 12:06:32;;;;;;;7.72;4.63;;;25.00;46.10;;;;;;6227410;28;81771;-64
2021/06/11 12:09:32;;;;;;;11.00;4.03;;;25.00;46.20;;;;;;6230825;27;81047;-64
2021/06/11 12:12:33;;;;;;;5.75;3.80;;;25.10;45.80;;;;;;6225804;27;80436;-64
2021/06/11 12:15:33;;;;;;;9.70;4.00;;;25.10;46.00;;;;;;6228754;28;80914;-64
2021/06/11 12:18:35;;;;;;;4.00;3.15;;;25.10;46.00;;;;;;6228752;27;80652;-64
2021/06/11 12:21:35;;;;;;;4.95;3.42;;;25.10;46.30;;;;;;6231022;28;80958;-64
2021/06/11 12:24:36;;;;;;;4.35;3.25;;;25.10;46.50;;;;;;6229623;27;80299;-63
2021/06/11 12:27:36;;;;;;;4.45;3.38;;;25.10;46.40;;;;;;6230868;27;80462;-63
2021/06/11 12:30:37;;;;;;;9.05;3.50;;;25.10;47.00;;;;;;6232292;28;89900;-63
2021/06/11 12:33:37;;;;;;;5.85;3.60;;;25.10;47.40;;;;;;6239901;27;81480;-63
2021/06/11 12:36:38;;;;;;;6.53;3.28;;;25.10;48.00;;;;;;6235695;27;80814;-63
2021/06/11 12:39:38;;;;;;;5.95;3.60;;;25.10;49.00;;;;;;6233775;27;81204;-63
2021/06/11 12:42:40;;;;;;;8.75;3.33;;;25.00;49.70;;;;;;6235748;28;80444;-63
2021/06/11 12:45:42;;;;;;;4.80;3.42;;;25.10;50.50;;;;;;6233284;27;80175;-63
2021/06/11 12:48:42;;;;;;;4.25;3.60;;;25.00;50.40;;;;;;6233535;27;84497;-63
2021/06/11 12:51:43;;;;;;;10.43;3.50;;;25.00;50.70;;;;;;6228077;27;81949;-62
2021/06/11 12:54:43;;;;;;;5.90;3.55;;;25.00;51.30;;;;;;6247940;27;81432;-63
2021/06/11 12:57:44;;;;;;;4.00;3.50;;;25.00;50.30;;;;;;6228262;27;81156;-65
2021/06/11 13:00:44;;;;;;;5.63;3.15;;;25.00;50.30;;;;;;6238452;27;82941;-62
2021/06/11 13:03:45;;;;;;;4.88;3.08;;;25.00;50.10;;;;;;6232519;27;81609;-62
2021/06/11 13:06:45;;;;;;;10.02;3.72;;;24.90;50.00;;;;;;6231576;27;81060;-62
2021/06/11 13:09:46;;;;;;;6.32;3.17;;;24.90;50.70;;;;;;6219082;27;80937;-63
2021/06/11 13:12:46;;;;;;;16.20;3.00;;;25.00;51.30;;;;;;6229231;27;80566;-63
2021/06/11 13:15:47;;;;;;;5.07;3.78;;;25.00;51.30;;;;;;6228448;27;80459;-64
2021/06/11 13:18:47;;;;;;;2.85;2.55;;;25.00;51.90;;;;;;6229457;27;80950;-61
2021/06/11 13:21:48;;;;;;;7.45;3.30;;;25.00;51.90;;;;;;6229094;27;80888;-63
2021/06/11 13:24:48;;;;;;;4.22;2.78;;;25.00;52.00;;;;;;6228864;27;80196;-62
2021/06/11 13:27:49;;;;;;;4.82;3.08;;;25.00;52.30;;;;;;6226990;27;80832;-62
2021/06/11 13:30:49;;;;;;;5.60;2.80;;;25.10;52.30;;;;;;6228926;28;80418;-63
2021/06/11 13:33:50;;;;;;;13.57;3.33;;;25.10;52.60;;;;;;6229705;27;80299;-62
2021/06/11 13:36:50;;;;;;;5.40;3.75;;;25.00;52.90;;;;;;6227609;27;81762;-63
2021/06/11 13:39:51;;;;;;;5.25;3.22;;;25.10;53.10;;;;;;6226726;27;80188;-64
2021/06/11 13:42:51;;;;;;;5.45;2.83;;;25.10;52.90;;;;;;6223782;27;80539;-64
2021/06/11 13:45:52;;;;;;;5.28;2.85;;;25.10;53.10;;;;;;6224771;27;81766;-64
2021/06/11 13:48:53;;;;;;;6.38;3.55;;;25.10;52.90;;;;;;6230451;27;81500;-65
2021/06/11 13:51:53;;;;;;;7.22;3.10;;;25.10;52.90;;;;;;6228909;27;80519;-63
2021/06/11 13:54:54;;;;;;;10.75;3.70;;;25.10;53.20;;;;;;6221500;28;81552;-63
2021/06/11 13:57:56;;;;;;;6.05;3.47;;;25.10;53.50;;;;;;6226479;27;80695;-64
2021/06/11 14:00:56;;;;;;;8.50;3.25;;;25.10;53.80;;;;;;6227628;27;80796;-63
2021/06/11 14:03:57;;;;;;;5.38;3.08;;;25.10;54.40;;;;;;6222550;28;90044;-64
2021/06/11 14:06:58;;;;;;;7.68;3.08;;;25.10;54.20;;;;;;6227605;27;80643;-64
2021/06/11 14:09:58;;;;;;;9.77;3.53;;;25.10;54.30;;;;;;6229794;27;80614;-63
2021/06/11 14:12:59;;;;;;;7.88;3.40;;;25.10;54.00;;;;;;6230028;27;81614;-63
2021/06/11 14:15:59;;;;;;;8.75;3.22;;;25.10;54.00;;;;;;6231099;27;80516;-63
2021/06/11 14:19:02;;;;;;;7.75;3.53;;;25.10;54.20;;;;;;6242430;27;80842;-63
2021/06/11 14:22:03;;;;;;;8.48;3.10;;;25.20;54.00;;;;;;6238452;27;81603;-63
2021/06/11 14:25:03;;;;;;;4.50;3.30;;;25.20;54.00;;;;;;6236146;27;80224;-64
2021/06/11 14:28:04;;;;;;;6.15;3.50;;;25.20;54.40;;;;;;6233632;27;80689;-63
2021/06/11 14:31:04;;;;;;;8.50;3.30;;;25.20;54.40;;;;;;6235317;27;80560;-62
2021/06/11 14:34:05;;;;;;;9.45;3.50;;;25.20;54.00;;;;;;6235983;27;80595;-64
2021/06/11 14:37:06;;;;;;;6.70;3.20;;;25.20;54.10;;;;;;6235848;27;80912;-64
2021/06/11 14:40:06;;;;;;;15.13;4.00;;;25.20;54.20;;;;;;6248397;27;80705;-65
2021/06/11 14:43:07;;;;;;;7.20;3.60;;;25.20;53.60;;;;;;6237494;27;80707;-63
2021/06/11 14:46:07;;;;;;;5.50;3.35;;;25.20;53.10;;;;;;6233625;27;82656;-63
2021/06/11 14:49:08;;;;;;;3.53;3.20;;;25.20;53.00;;;;;;6243238;27;80396;-63
2021/06/11 14:52:10;;;;;;;4.28;3.10;;;25.20;52.80;;;;;;6245031;27;81424;-63
2021/06/11 14:55:11;;;;;;;14.43;4.03;;;25.20;53.00;;;;;;6245812;27;81361;-63
2021/06/11 14:58:12;;;;;;;6.88;3.53;;;25.20;52.60;;;;;;6233652;27;80557;-62
2021/06/11 15:01:13;;;;;;;7.30;4.10;;;25.20;53.00;;;;;;6232224;27;81805;-63
2021/06/11 15:04:13;;;;;;;5.60;3.30;;;25.20;52.20;;;;;;6235656;27;80828;-63
2021/06/11 15:07:14;;;;;;;9.02;3.50;;;25.10;51.60;;;;;;6234102;27;80288;-64
2021/06/11 15:10:14;;;;;;;4.45;3.17;;;25.10;51.60;;;;;;6237770;27;80411;-64
2021/06/11 15:13:18;;;;;;;4.25;3.25;;;25.10;51.70;;;;;;6235093;27;80467;-64
2021/06/11 15:16:20;;;;;;;4.75;2.95;;;25.10;51.30;;;;;;6232446;27;80351;-64
2021/06/11 15:19:21;;;;;;;4.38;2.97;;;25.10;50.90;;;;;;6225382;27;82435;-64
2021/06/11 15:22:21;;;;;;;4.25;2.63;;;25.00;50.80;;;;;;6232390;27;80423;-63
2021/06/11 15:25:22;;;;;;;6.90;3.00;;;25.00;50.80;;;;;;6231929;27;80718;-64
2021/06/11 15:28:22;;;;;;;5.68;3.53;;;25.00;50.70;;;;;;6237458;27;80795;-64
2021/06/11 15:31:23;;;;;;;5.97;3.00;;;25.00;50.80;;;;;;6233335;27;80535;-63
2021/06/11 15:34:23;;;;;;;3.63;2.75;;;25.00;50.90;;;;;;6235234;27;80498;-63
2021/06/11 15:37:24;;;;;;;3.15;2.78;;;25.00;51.00;;;;;;6230907;27;81676;-62